Time;durP1;ratioP1;P1;durP2;ratioP2;P2;SDS_P1;SDS_P2;PMS_P1;PMS_P2;Temp;Humidity;BMP_temperature;BMP_pressure;BME280_temperature;BME280_humidity;BME280_pressure;Samples;Min_cycle;Max_cycle;Signal;HPM_P1;HPM_P2
2022/12/23 00:00:24;;;;;;;54.30;27.53;;;;;;;;;;1720357;83;27699;-51
2022/12/23 00:02:52;;;;;;;48.68;26.97;;;;;;;;;;1720355;83;25518;-54
2022/12/23 00:05:17;;;;;;;45.48;25.82;;;;;;;;;;1720398;83;32762;-50
2022/12/23 00:07:43;;;;;;;53.85;29.00;;;;;;;;;;1720341;83;27590;-52
2022/12/23 00:10:11;;;;;;;53.05;27.93;;;;;;;;;;1705432;83;25461;-50
2022/12/23 00:15:22;;;;;;;48.98;27.48;;;;;;;;;;1720360;83;25534;-50
2022/12/23 00:17:48;;;;;;;45.75;25.68;;;;;;;;;;1720334;83;32289;-50
2022/12/23 00:20:15;;;;;;;45.90;25.40;;;;;;;;;;1720307;83;29750;-52
2022/12/23 00:25:40;;;;;;;49.77;26.73;;;;;;;;;;1720413;83;25536;-49
2022/12/23 00:28:17;;;;;;;48.28;26.45;;;;;;;;;;1720350;83;25557;-50
2022/12/23 00:30:48;;;;;;;50.43;25.62;;;;;;;;;;1720432;83;25401;-49
2022/12/23 00:33:15;;;;;;;;;;;;;;;;;;1722876;83;27600;-49
2022/12/23 00:35:43;;;;;;;46.55;26.12;;;;;;;;;;1720262;83;25561;-49
2022/12/23 00:38:11;;;;;;;49.20;26.62;;;;;;;;;;1720341;83;25419;-53
2022/12/23 00:43:23;;;;;;;51.85;26.68;;;;;;;;;;1720386;83;25566;-51
2022/12/23 00:45:50;;;;;;;49.23;25.70;;;;;;;;;;1720322;83;27557;-51
2022/12/23 00:51:00;;;;;;;48.05;26.45;;;;;;;;;;1720375;83;25525;-48
2022/12/23 00:53:26;;;;;;;46.05;25.48;;;;;;;;;;1720356;83;25517;-51
2022/12/23 00:55:54;;;;;;;43.17;24.57;;;;;;;;;;1720435;83;25396;-52
2022/12/23 00:58:22;;;;;;;49.35;25.52;;;;;;;;;;1720452;83;27519;-51
2022/12/23 01:06:17;;;;;;;45.00;25.02;;;;;;;;;;1705639;83;25953;-49
2022/12/23 01:08:43;;;;;;;54.93;25.57;;;;;;;;;;1720424;83;25355;-49
2022/12/23 01:11:12;;;;;;;48.28;25.30;;;;;;;;;;1720462;83;27655;-49
2022/12/23 01:13:40;;;;;;;50.43;25.62;;;;;;;;;;1720591;83;25360;-49
2022/12/23 01:16:10;;;;;;;50.92;26.57;;;;;;;;;;1720443;83;25403;-49
2022/12/23 01:18:39;;;;;;;51.25;25.27;;;;;;;;;;1720467;83;25544;-49
2022/12/23 01:21:08;;;;;;;55.65;25.62;;;;;;;;;;1720738;83;25369;-50
2022/12/23 01:23:36;;;;;;;54.27;25.70;;;;;;;;;;1720541;83;27553;-49
2022/12/23 01:26:06;;;;;;;49.95;26.77;;;;;;;;;;1720371;83;25407;-50
2022/12/23 01:28:34;;;;;;;51.70;25.95;;;;;;;;;;1720506;83;25454;-50
2022/12/23 01:31:03;;;;;;;54.13;26.33;;;;;;;;;;1720351;83;25561;-50
2022/12/23 01:33:31;;;;;;;49.77;24.73;;;;;;;;;;1720706;83;25466;-49
2022/12/23 01:36:07;;;;;;;57.30;25.05;;;;;;;;;;1720366;83;27560;-50
2022/12/23 01:38:35;;;;;;;55.33;24.55;;;;;;;;;;1720419;83;25383;-49
2022/12/23 01:41:03;;;;;;;51.63;24.23;;;;;;;;;;1720439;83;25525;-49
2022/12/23 01:43:48;;;;;;;50.70;23.60;;;;;;;;;;1720401;83;25590;-50
2022/12/23 01:46:14;;;;;;;64.60;24.95;;;;;;;;;;1720532;83;25381;-50
2022/12/23 01:48:44;;;;;;;47.62;23.60;;;;;;;;;;1720432;83;27656;-50
2022/12/23 01:51:13;;;;;;;57.03;23.95;;;;;;;;;;1720274;83;25419;-50
2022/12/23 01:53:46;;;;;;;47.88;23.85;;;;;;;;;;1720444;83;25462;-50
2022/12/23 01:56:15;;;;;;;42.67;21.10;;;;;;;;;;1720428;83;25677;-51
2022/12/23 01:58:43;;;;;;;;;;;;;;;;;;1722979;83;25529;-48
2022/12/23 02:03:59;;;;;;;50.98;22.05;;;;;;;;;;1720356;83;25630;-49
2022/12/23 02:09:20;;;;;;;49.00;20.68;;;;;;;;;;1720385;83;25586;-49
2022/12/23 02:11:59;;;;;;;57.20;24.92;;;;;;;;;;1720482;83;25609;-49
2022/12/23 02:18:01;;;;;;;68.87;27.40;;;;;;;;;;1693142;83;25573;-50
2022/12/23 02:20:37;;;;;;;58.50;25.17;;;;;;;;;;1720442;83;25430;-50
2022/12/23 02:23:09;;;;;;;62.83;25.00;;;;;;;;;;1718509;83;25625;-53
2022/12/23 02:25:57;;;;;;;65.85;25.25;;;;;;;;;;1720458;83;25552;-51
2022/12/23 02:28:42;;;;;;;65.10;25.05;;;;;;;;;;1720538;83;26936;-50
2022/12/23 02:31:28;;;;;;;63.35;23.27;;;;;;;;;;1719113;83;25579;-50
2022/12/23 02:33:58;;;;;;;77.87;25.80;;;;;;;;;;1699806;83;25441;-52
2022/12/23 02:36:52;;;;;;;61.63;24.72;;;;;;;;;;1720374;83;25601;-49
2022/12/23 02:39:31;;;;;;;58.63;24.95;;;;;;;;;;1720446;83;25378;-50
2022/12/23 02:42:06;;;;;;;58.23;23.25;;;;;;;;;;1720574;83;27211;-50
2022/12/23 02:44:39;;;;;;;55.28;23.05;;;;;;;;;;1720360;83;25558;-50
2022/12/23 02:47:11;;;;;;;55.45;24.32;;;;;;;;;;1705615;83;25428;-52
2022/12/23 02:49:41;;;;;;;54.58;25.25;;;;;;;;;;1719944;83;25561;-49
2022/12/23 02:52:17;;;;;;;55.33;23.52;;;;;;;;;;1719130;83;25396;-50
2022/12/23 02:54:50;;;;;;;57.03;22.13;;;;;;;;;;1719093;83;27529;-50
2022/12/23 02:57:20;;;;;;;55.75;17.92;;;;;;;;;;1719022;83;25631;-50
2022/12/23 02:59:47;;;;;;;;;;;;;;;;;;1721601;83;25383;-49
2022/12/23 03:02:13;;;;;;;74.67;66.97;;;;;;;;;;1719049;83;25592;-50
2022/12/23 03:04:40;;;;;;;104.07;93.63;;;;;;;;;;1719159;83;27930;-50
2022/12/23 03:07:11;;;;;;;92.10;83.58;;;;;;;;;;1719033;83;27505;-50
2022/12/23 03:09:45;;;;;;;;;;;;;;;;;;1692346;83;25793;-52
2022/12/23 03:12:17;;;;;;;58.08;40.63;;;;;;;;;;1719082;83;25581;-49
2022/12/23 03:15:11;;;;;;;96.60;86.67;;;;;;;;;;1719008;83;25574;-50
2022/12/23 03:17:59;;;;;;;99.20;89.63;;;;;;;;;;1719166;83;25398;-49
2022/12/23 03:20:41;;;;;;;96.47;87.30;;;;;;;;;;1719104;83;28475;-49
2022/12/23 03:23:11;;;;;;;95.55;86.82;;;;;;;;;;1718961;83;25861;-50
2022/12/23 03:25:40;;;;;;;102.12;92.40;;;;;;;;;;1718128;83;25604;-50
2022/12/23 03:28:16;;;;;;;98.03;88.85;;;;;;;;;;1718968;83;25508;-49
2022/12/23 03:30:46;;;;;;;101.60;91.72;;;;;;;;;;1718655;83;25479;-51
2022/12/23 03:33:25;;;;;;;96.17;87.33;;;;;;;;;;1719037;83;27504;-50
2022/12/23 03:35:54;;;;;;;41.65;18.12;;;;;;;;;;1719125;83;27331;-50
2022/12/23 03:38:22;;;;;;;49.73;19.12;;;;;;;;;;1719051;83;25390;-50
2022/12/23 03:40:54;;;;;;;43.25;21.20;;;;;;;;;;1719029;83;25577;-50
2022/12/23 03:43:30;;;;;;;41.37;17.70;;;;;;;;;;1719152;83;25404;-50
2022/12/23 03:46:02;;;;;;;43.42;19.23;;;;;;;;;;1719034;83;27434;-51
2022/12/23 03:48:41;;;;;;;47.25;19.37;;;;;;;;;;1718774;83;25621;-49
2022/12/23 03:51:11;;;;;;;49.05;34.15;;;;;;;;;;1685705;84;25568;-49
2022/12/23 03:53:41;;;;;;;52.85;23.07;;;;;;;;;;1706160;84;25573;-50
2022/12/23 03:56:10;;;;;;;;;;;;;;;;;;1707489;84;25541;-49
2022/12/23 03:58:46;;;;;;;48.80;20.40;;;;;;;;;;1706604;84;27481;-49
2022/12/23 04:01:15;;;;;;;47.80;21.40;;;;;;;;;;1706073;84;25852;-50
2022/12/23 04:03:56;;;;;;;43.00;17.70;;;;;;;;;;1706528;84;25601;-50
2022/12/23 04:06:25;;;;;;;46.60;19.75;;;;;;;;;;1706577;84;26143;-53
2022/12/23 04:08:53;;;;;;;40.08;17.48;;;;;;;;;;1706805;84;25596;-50
2022/12/23 04:11:21;;;;;;;57.60;49.35;;;;;;;;;;1706517;84;29789;-50
2022/12/23 04:13:48;;;;;;;35.20;16.73;;;;;;;;;;1706405;84;25465;-49
2022/12/23 04:16:17;;;;;;;43.23;21.97;;;;;;;;;;1684087;84;25571;-50
2022/12/23 04:18:42;;;;;;;44.20;18.77;;;;;;;;;;1706516;84;25491;-51
2022/12/23 04:21:08;;;;;;;38.88;17.20;;;;;;;;;;1706567;84;32702;-50
2022/12/23 04:23:34;;;;;;;37.03;17.30;;;;;;;;;;1706527;84;27415;-49
2022/12/23 04:26:00;;;;;;;39.38;21.80;;;;;;;;;;1706441;84;31975;-50
2022/12/23 04:28:26;;;;;;;36.90;17.37;;;;;;;;;;1706559;84;30132;-50
2022/12/23 04:30:52;;;;;;;34.45;15.93;;;;;;;;;;1706627;84;34660;-51
2022/12/23 04:33:17;;;;;;;50.63;39.35;;;;;;;;;;1684341;84;32284;-50
2022/12/23 04:35:43;;;;;;;33.98;22.60;;;;;;;;;;1706765;84;27685;-50
2022/12/23 04:38:11;;;;;;;99.23;90.53;;;;;;;;;;1706569;84;25752;-50
2022/12/23 04:40:37;;;;;;;41.40;25.30;;;;;;;;;;1706671;84;25518;-49
2022/12/23 04:43:03;;;;;;;41.63;18.12;;;;;;;;;;1706539;84;35051;-49
2022/12/23 04:45:29;;;;;;;36.15;17.07;;;;;;;;;;1706653;84;32268;-50
2022/12/23 04:47:57;;;;;;;31.20;16.40;;;;;;;;;;1706725;84;28972;-51
2022/12/23 04:50:24;;;;;;;39.25;16.23;;;;;;;;;;1691410;83;25801;-51
2022/12/23 04:52:51;;;;;;;37.83;17.40;;;;;;;;;;1719213;83;28224;-50
2022/12/23 04:55:17;;;;;;;31.77;17.12;;;;;;;;;;1719153;83;27830;-51
2022/12/23 04:57:43;;;;;;;32.85;17.02;;;;;;;;;;1719197;83;32542;-51
2022/12/23 05:00:12;;;;;;;51.73;42.88;;;;;;;;;;1719277;83;26875;-50
2022/12/23 05:02:38;;;;;;;68.07;62.33;;;;;;;;;;1719226;83;25586;-49
2022/12/23 05:05:07;;;;;;;95.53;87.37;;;;;;;;;;1719184;83;25650;-49
2022/12/23 05:07:33;;;;;;;96.53;88.23;;;;;;;;;;1719389;83;25645;-55
2022/12/23 05:10:00;;;;;;;93.75;85.87;;;;;;;;;;1719178;83;25440;-49
2022/12/23 05:12:29;;;;;;;95.47;87.43;;;;;;;;;;1719226;83;27592;-49
2022/12/23 05:14:56;;;;;;;95.03;86.90;;;;;;;;;;1719269;83;25921;-53
2022/12/23 05:17:23;;;;;;;97.20;88.53;;;;;;;;;;1719149;83;25371;-50
2022/12/23 05:19:51;;;;;;;93.90;85.80;;;;;;;;;;1720392;83;25606;-52
2022/12/23 05:22:17;;;;;;;32.38;19.90;;;;;;;;;;1719229;83;25409;-50
2022/12/23 05:24:43;;;;;;;31.95;15.43;;;;;;;;;;1719200;83;27542;-50
2022/12/23 05:27:09;;;;;;;34.75;16.95;;;;;;;;;;1719048;83;32810;-52
2022/12/23 05:29:35;;;;;;;34.18;15.00;;;;;;;;;;1719130;83;28712;-53
2022/12/23 05:32:01;;;;;;;31.55;15.95;;;;;;;;;;1719118;83;25590;-52
2022/12/23 05:34:27;;;;;;;35.65;16.75;;;;;;;;;;1719206;83;32240;-50
2022/12/23 05:36:53;;;;;;;31.45;15.28;;;;;;;;;;1719206;83;29630;-50
2022/12/23 05:39:19;;;;;;;31.55;16.10;;;;;;;;;;1719108;83;25534;-50
2022/12/23 05:41:45;;;;;;;35.03;14.70;;;;;;;;;;1719185;83;29995;-50
2022/12/23 05:44:11;;;;;;;33.30;17.02;;;;;;;;;;1719137;83;35106;-52
2022/12/23 05:46:37;;;;;;;96.20;87.97;;;;;;;;;;1719200;83;32291;-51
2022/12/23 05:49:02;;;;;;;41.80;29.50;;;;;;;;;;1719095;83;27490;-49
2022/12/23 05:51:28;;;;;;;96.20;87.60;;;;;;;;;;1718905;83;28062;-49
2022/12/23 05:53:57;;;;;;;94.60;86.65;;;;;;;;;;1719108;83;25549;-49
2022/12/23 05:56:23;;;;;;;94.45;86.25;;;;;;;;;;1719116;83;25550;-50
2022/12/23 05:58:49;;;;;;;45.33;39.67;;;;;;;;;;1719131;83;32152;-49
2022/12/23 06:01:15;;;;;;;36.60;16.52;;;;;;;;;;1719130;83;27444;-49
2022/12/23 06:03:41;;;;;;;29.02;14.95;;;;;;;;;;1719067;83;25632;-53
2022/12/23 06:06:07;;;;;;;34.40;16.10;;;;;;;;;;1719158;83;30017;-53
2022/12/23 06:08:34;;;;;;;28.67;14.38;;;;;;;;;;1718983;83;25560;-50
2022/12/23 06:11:05;;;;;;;32.08;16.52;;;;;;;;;;1719134;83;32250;-53
2022/12/23 06:13:31;;;;;;;33.80;16.45;;;;;;;;;;1719149;83;27487;-51
2022/12/23 06:15:59;;;;;;;35.80;20.50;;;;;;;;;;1719144;83;30980;-49
2022/12/23 06:18:25;;;;;;;34.92;16.60;;;;;;;;;;1719054;83;25475;-51
2022/12/23 06:20:51;;;;;;;42.40;19.85;;;;;;;;;;1719062;83;34659;-49
2022/12/23 06:23:16;;;;;;;42.35;30.52;;;;;;;;;;1719144;83;32799;-52
2022/12/23 06:25:42;;;;;;;54.85;48.87;;;;;;;;;;1695791;83;27242;-49
2022/12/23 06:28:08;;;;;;;40.28;31.30;;;;;;;;;;1718960;83;32521;-49
2022/12/23 06:30:34;;;;;;;40.50;28.60;;;;;;;;;;1719185;83;28061;-48
2022/12/23 06:33:02;;;;;;;64.72;54.60;;;;;;;;;;1719053;83;34735;-50
2022/12/23 06:35:28;;;;;;;32.98;16.82;;;;;;;;;;1719106;83;25594;-53
2022/12/23 06:37:54;;;;;;;36.77;16.75;;;;;;;;;;1719066;83;27511;-51
2022/12/23 06:40:20;;;;;;;34.90;16.63;;;;;;;;;;1719003;83;32027;-48
2022/12/23 06:42:46;;;;;;;37.60;18.73;;;;;;;;;;1719068;83;28445;-48
2022/12/23 06:45:14;;;;;;;37.15;17.50;;;;;;;;;;1719026;83;25552;-50
2022/12/23 06:47:40;;;;;;;43.20;22.20;;;;;;;;;;1719088;83;25374;-49
2022/12/23 06:50:08;;;;;;;45.38;23.07;;;;;;;;;;1718946;83;27549;-49
2022/12/23 06:52:35;;;;;;;49.13;23.80;;;;;;;;;;1720335;83;25426;-49
2022/12/23 06:55:01;;;;;;;48.45;22.50;;;;;;;;;;1720478;83;25404;-49
2022/12/23 06:57:27;;;;;;;46.58;23.77;;;;;;;;;;1720319;83;25536;-49
2022/12/23 06:59:53;;;;;;;46.53;23.65;;;;;;;;;;1720384;83;32629;-49
2022/12/23 07:02:21;;;;;;;46.90;21.52;;;;;;;;;;1693906;83;27584;-49
2022/12/23 07:04:46;;;;;;;42.65;22.25;;;;;;;;;;1720286;83;25390;-49
2022/12/23 07:07:12;;;;;;;43.35;23.25;;;;;;;;;;1720399;83;28057;-49
2022/12/23 07:09:38;;;;;;;41.92;21.60;;;;;;;;;;1720232;83;35141;-49
2022/12/23 07:12:06;;;;;;;41.90;22.20;;;;;;;;;;1720358;83;32165;-49
2022/12/23 07:14:32;;;;;;;39.75;21.07;;;;;;;;;;1720468;83;27500;-48
2022/12/23 07:16:58;;;;;;;47.13;23.27;;;;;;;;;;1720251;83;33149;-50
2022/12/23 07:19:24;;;;;;;40.97;21.23;;;;;;;;;;1705536;83;28029;-49
2022/12/23 07:21:50;;;;;;;41.25;21.23;;;;;;;;;;1720305;83;35151;-51
2022/12/23 07:24:16;;;;;;;41.13;22.27;;;;;;;;;;1720373;83;32746;-50
2022/12/23 07:26:42;;;;;;;44.45;21.27;;;;;;;;;;1720359;83;27546;-50
2022/12/23 07:29:08;;;;;;;37.55;21.30;;;;;;;;;;1720200;83;32414;-51
2022/12/23 07:31:34;;;;;;;39.92;22.07;;;;;;;;;;1720402;83;28126;-51
2022/12/23 07:33:59;;;;;;;40.12;22.75;;;;;;;;;;1720320;83;35123;-49
2022/12/23 07:36:25;;;;;;;45.55;23.10;;;;;;;;;;1720411;83;32161;-50
2022/12/23 07:38:51;;;;;;;39.33;22.25;;;;;;;;;;1720356;83;27546;-51
2022/12/23 07:41:18;;;;;;;39.88;22.07;;;;;;;;;;1720277;83;25558;-51
2022/12/23 07:43:45;;;;;;;42.20;22.52;;;;;;;;;;1720334;83;25511;-50
2022/12/23 07:46:11;;;;;;;40.15;23.07;;;;;;;;;;1720351;83;25582;-51
2022/12/23 07:48:40;;;;;;;45.38;23.40;;;;;;;;;;1720390;83;32371;-51
2022/12/23 07:51:06;;;;;;;44.35;23.50;;;;;;;;;;1720128;83;27722;-49
2022/12/23 07:53:34;;;;;;;42.62;23.60;;;;;;;;;;1718982;83;25405;-50
2022/12/23 07:56:01;;;;;;;42.83;22.77;;;;;;;;;;1719111;83;29465;-54
2022/12/23 07:58:28;;;;;;;41.60;22.55;;;;;;;;;;1719054;83;25611;-52
2022/12/23 08:01:00;;;;;;;42.40;23.00;;;;;;;;;;1719142;83;25489;-53
2022/12/23 08:03:26;;;;;;;40.83;22.93;;;;;;;;;;1719307;83;27506;-51
2022/12/23 08:06:06;;;;;;;38.73;22.30;;;;;;;;;;1719138;83;25730;-54
2022/12/23 08:08:34;;;;;;;40.43;23.07;;;;;;;;;;1719458;83;25571;-54
2022/12/23 08:11:03;;;;;;;44.50;23.95;;;;;;;;;;1719193;83;25553;-52
2022/12/23 08:13:31;;;;;;;42.73;22.80;;;;;;;;;;1719372;83;32238;-52
2022/12/23 08:16:00;;;;;;;39.95;23.38;;;;;;;;;;1719243;83;27359;-52
2022/12/23 08:18:29;;;;;;;;;;;;;;;;;;1721723;83;25528;-50
2022/12/23 08:21:05;;;;;;;45.60;24.35;;;;;;;;;;1719375;83;25232;-51
2022/12/23 08:23:33;;;;;;;40.43;22.80;;;;;;;;;;1719306;83;25496;-50
2022/12/23 08:26:09;;;;;;;45.03;24.32;;;;;;;;;;1719249;83;25371;-50
2022/12/23 08:28:37;;;;;;;48.30;25.37;;;;;;;;;;1719245;83;27516;-50
2022/12/23 08:31:09;;;;;;;48.10;24.52;;;;;;;;;;1719151;83;25395;-53
2022/12/23 08:33:38;;;;;;;46.50;24.37;;;;;;;;;;1719271;83;25413;-50
2022/12/23 08:36:08;;;;;;;44.85;25.00;;;;;;;;;;1719298;83;25537;-52
2022/12/23 08:38:36;;;;;;;49.53;26.05;;;;;;;;;;1719399;83;25544;-50
2022/12/23 08:41:12;;;;;;;48.98;24.55;;;;;;;;;;1719260;83;28032;-50
2022/12/23 08:43:40;;;;;;;49.00;25.43;;;;;;;;;;1717742;83;25603;-53
2022/12/23 08:46:07;;;;;;;45.70;24.35;;;;;;;;;;1719201;83;25364;-54
2022/12/23 08:48:36;;;;;;;46.50;24.72;;;;;;;;;;1719156;83;25544;-50
2022/12/23 08:51:05;;;;;;;46.20;23.42;;;;;;;;;;1719765;82;25494;-51
2022/12/23 08:53:34;;;;;;;42.98;24.65;;;;;;;;;;1731751;82;28691;-52
2022/12/23 08:56:06;;;;;;;45.63;24.52;;;;;;;;;;1731651;82;25422;-53
2022/12/23 08:58:39;;;;;;;42.88;23.38;;;;;;;;;;1731737;82;25394;-52
2022/12/23 09:01:08;;;;;;;39.98;22.42;;;;;;;;;;1730285;82;25508;-49
2022/12/23 09:03:37;;;;;;;47.27;24.02;;;;;;;;;;1731819;82;25633;-52
2022/12/23 09:06:07;;;;;;;50.05;25.35;;;;;;;;;;1731670;82;27436;-50
2022/12/23 09:08:35;;;;;;;44.50;23.83;;;;;;;;;;1731609;82;25641;-53
2022/12/23 09:11:04;;;;;;;43.73;22.15;;;;;;;;;;1731614;82;25518;-52
2022/12/23 09:13:30;;;;;;;41.25;20.72;;;;;;;;;;1731806;82;25626;-54
2022/12/23 09:15:58;;;;;;;66.75;56.98;;;;;;;;;;1731655;82;25448;-54
2022/12/23 09:18:24;;;;;;;98.90;90.07;;;;;;;;;;1731628;82;27526;-48
2022/12/23 09:20:58;;;;;;;47.38;35.68;;;;;;;;;;1731513;82;25411;-51
2022/12/23 09:23:24;;;;;;;39.33;20.08;;;;;;;;;;1729768;82;25641;-50
2022/12/23 09:25:50;;;;;;;39.30;18.40;;;;;;;;;;1731575;82;27784;-53
2022/12/23 09:28:17;;;;;;;41.88;19.37;;;;;;;;;;1731663;82;32569;-52
2022/12/23 09:30:43;;;;;;;39.92;18.52;;;;;;;;;;1731599;82;27678;-51
2022/12/23 09:33:09;;;;;;;43.75;20.23;;;;;;;;;;1731576;82;31759;-51
2022/12/23 09:35:35;;;;;;;99.67;90.80;;;;;;;;;;1708644;82;25839;-50
2022/12/23 09:38:01;;;;;;;99.25;90.15;;;;;;;;;;1731636;82;27758;-51
2022/12/23 09:40:31;;;;;;;79.62;72.12;;;;;;;;;;1731588;82;32268;-52
2022/12/23 09:43:11;;;;;;;;;;;;;;;;;;1734220;82;27437;-50
2022/12/23 09:45:41;;;;;;;;;;;;;;;;;;1706296;84;25566;-53
2022/12/23 09:48:14;;;;;;;83.67;75.72;;;;;;;;;;1702986;84;25676;-62
2022/12/23 09:50:42;;;;;;;101.15;92.00;;;;;;;;;;1702981;84;25583;-63
2022/12/23 09:53:14;;;;;;;78.75;70.85;;;;;;;;;;1685520;84;25667;-65
2022/12/23 09:55:58;;;;;;;102.80;93.22;;;;;;;;;;1678347;85;27546;-63
2022/12/23 09:58:55;;;;;;;97.75;88.82;;;;;;;;;;1679646;85;25666;-66
2022/12/23 10:01:35;;;;;;;48.85;36.28;;;;;;;;;;1679835;85;25569;-65
2022/12/23 10:04:05;;;;;;;96.80;88.10;;;;;;;;;;1676178;85;26119;-64
2022/12/23 10:06:33;;;;;;;104.53;94.50;;;;;;;;;;1679901;85;25608;-68
2022/12/23 10:09:05;;;;;;;96.90;87.55;;;;;;;;;;1679590;85;27661;-62
2022/12/23 10:11:40;;;;;;;44.80;25.40;;;;;;;;;;1679695;85;25501;-66
2022/12/23 10:14:21;;;;;;;101.30;91.80;;;;;;;;;;1679818;85;25664;-69
2022/12/23 10:16:59;;;;;;;75.10;65.52;;;;;;;;;;1656161;85;25679;-67
2022/12/23 10:19:40;;;;;;;48.20;21.48;;;;;;;;;;1679815;85;25236;-68
2022/12/23 10:22:31;;;;;;;43.55;19.30;;;;;;;;;;1697628;84;27480;-65
2022/12/23 10:24:59;;;;;;;67.87;59.98;;;;;;;;;;1704646;84;25884;-67
2022/12/23 10:27:38;;;;;;;102.00;92.15;;;;;;;;;;1684471;84;25467;-66
2022/12/23 10:30:18;;;;;;;47.08;22.65;;;;;;;;;;1706700;84;26031;-68
2022/12/23 10:33:21;;;;;;;52.80;29.80;;;;;;;;;;1706707;84;25400;-65
2022/12/23 10:35:57;;;;;;;42.55;20.80;;;;;;;;;;1706653;84;27541;-64
2022/12/23 10:38:43;;;;;;;47.10;22.50;;;;;;;;;;1682775;84;26278;-65
2022/12/23 10:41:13;;;;;;;46.42;20.20;;;;;;;;;;1652085;86;25536;-65
2022/12/23 10:43:55;;;;;;;50.78;21.90;;;;;;;;;;1652076;86;25597;-62
2022/12/23 10:46:24;;;;;;;44.85;20.62;;;;;;;;;;1652244;86;25478;-59
2022/12/23 10:49:09;;;;;;;41.50;20.37;;;;;;;;;;1651550;85;27581;-65
2022/12/23 10:51:51;;;;;;;46.05;21.73;;;;;;;;;;1651112;85;25707;-65
2022/12/23 10:54:30;;;;;;;51.92;22.60;;;;;;;;;;1646233;87;25572;-65
2022/12/23 10:56:56;;;;;;;42.62;19.85;;;;;;;;;;1646304;87;25715;-64
2022/12/23 10:59:28;;;;;;;46.95;21.02;;;;;;;;;;1646308;87;25643;-64
2022/12/23 11:02:14;;;;;;;46.55;20.30;;;;;;;;;;1646255;87;27647;-65
2022/12/23 11:04:45;;;;;;;42.48;19.23;;;;;;;;;;1646173;87;27198;-64
2022/12/23 11:07:17;;;;;;;45.40;20.60;;;;;;;;;;1646301;87;25549;-66
2022/12/23 11:09:47;;;;;;;48.92;21.73;;;;;;;;;;1646170;87;25601;-64
2022/12/23 11:12:16;;;;;;;43.33;19.82;;;;;;;;;;1645983;87;25691;-64
2022/12/23 11:14:51;;;;;;;47.95;20.10;;;;;;;;;;1646242;87;27483;-65
2022/12/23 11:17:30;;;;;;;45.00;20.27;;;;;;;;;;1646545;84;25650;-62
2022/12/23 11:20:16;;;;;;;46.00;20.27;;;;;;;;;;1692237;84;25616;-64
2022/12/23 11:22:52;;;;;;;39.20;19.35;;;;;;;;;;1692047;84;25570;-63
2022/12/23 11:25:37;;;;;;;41.70;20.62;;;;;;;;;;1667351;84;25633;-63
2022/12/23 11:28:15;;;;;;;50.40;23.22;;;;;;;;;;1645168;84;28201;-64
2022/12/23 11:30:56;;;;;;;42.23;21.05;;;;;;;;;;1691985;84;25459;-62
2022/12/23 11:33:35;;;;;;;50.17;22.07;;;;;;;;;;1691771;84;25628;-63
2022/12/23 11:36:13;;;;;;;54.93;23.38;;;;;;;;;;1691062;84;25559;-64
2022/12/23 11:38:49;;;;;;;53.13;22.87;;;;;;;;;;1692215;84;25410;-62
2022/12/23 11:41:22;;;;;;;50.67;22.70;;;;;;;;;;1692187;84;27594;-63
2022/12/23 11:43:52;;;;;;;52.40;23.52;;;;;;;;;;1691308;84;25495;-62
2022/12/23 11:46:27;;;;;;;53.42;23.25;;;;;;;;;;1691567;84;25577;-63
2022/12/23 11:49:18;;;;;;;50.92;24.35;;;;;;;;;;1692029;84;25418;-63
2022/12/23 11:51:48;;;;;;;44.90;21.07;;;;;;;;;;1692021;84;25423;-64
2022/12/23 11:54:18;;;;;;;47.25;21.02;;;;;;;;;;1686611;84;27549;-62
2022/12/23 11:56:50;;;;;;;46.77;22.17;;;;;;;;;;1706487;84;25403;-62
2022/12/23 11:59:26;;;;;;;45.55;21.37;;;;;;;;;;1706590;84;25372;-62
2022/12/23 12:01:57;;;;;;;43.83;19.80;;;;;;;;;;1705647;84;25779;-65
2022/12/23 12:04:26;;;;;;;40.92;20.82;;;;;;;;;;1705529;84;25700;-62
2022/12/23 12:06:56;;;;;;;47.62;22.75;;;;;;;;;;1659812;84;27608;-62
2022/12/23 12:09:24;;;;;;;49.00;23.18;;;;;;;;;;1683784;84;25799;-63
2022/12/23 12:12:04;;;;;;;44.30;22.77;;;;;;;;;;1705988;84;25533;-62
2022/12/23 12:14:48;;;;;;;47.78;21.77;;;;;;;;;;1705420;84;25874;-62
2022/12/23 12:17:21;;;;;;;42.03;21.37;;;;;;;;;;1706164;84;25613;-61
2022/12/23 12:20:15;;;;;;;43.95;20.88;;;;;;;;;;1705771;84;27385;-62
2022/12/23 12:22:51;;;;;;;41.68;20.12;;;;;;;;;;1706495;84;25593;-63
2022/12/23 12:25:24;;;;;;;44.45;23.05;;;;;;;;;;1706590;84;25451;-63
2022/12/23 12:27:59;;;;;;;44.90;22.13;;;;;;;;;;1704409;84;25424;-62
2022/12/23 12:30:35;;;;;;;49.15;22.15;;;;;;;;;;1705769;84;25625;-59
2022/12/23 12:33:15;;;;;;;51.60;24.37;;;;;;;;;;1706600;84;27387;-61
2022/12/23 12:35:54;;;;;;;51.35;22.48;;;;;;;;;;1706545;84;25594;-60
2022/12/23 12:38:31;;;;;;;47.78;23.90;;;;;;;;;;1704888;84;25689;-58
2022/12/23 12:41:01;;;;;;;49.75;22.50;;;;;;;;;;1706340;84;25492;-61
2022/12/23 12:43:29;;;;;;;;;;;;;;;;;;1709086;84;25527;-62
2022/12/23 12:46:07;;;;;;;;;;;;;;;;;;1709205;84;27504;-61
2022/12/23 12:49:00;;;;;;;39.67;20.10;;;;;;;;;;1706484;84;25554;-62
2022/12/23 12:51:38;;;;;;;50.65;23.87;;;;;;;;;;1706250;84;25569;-58
2022/12/23 12:54:21;;;;;;;48.92;23.18;;;;;;;;;;1717484;83;25401;-58
2022/12/23 12:56:53;;;;;;;43.68;21.30;;;;;;;;;;1720605;83;25383;-64
2022/12/23 12:59:23;;;;;;;51.95;24.07;;;;;;;;;;1720497;83;29613;-65
2022/12/23 13:02:08;;;;;;;50.00;25.62;;;;;;;;;;1720547;83;25487;-65
2022/12/23 13:04:46;;;;;;;52.53;23.80;;;;;;;;;;1720626;83;25613;-64
2022/12/23 13:07:17;;;;;;;51.92;25.65;;;;;;;;;;1720446;83;26260;-67
2022/12/23 13:09:54;;;;;;;46.60;23.27;;;;;;;;;;1719254;83;25372;-64
2022/12/23 13:12:38;;;;;;;54.20;25.37;;;;;;;;;;1719789;83;27992;-65
2022/12/23 13:15:10;;;;;;;47.95;24.00;;;;;;;;;;1720145;83;25476;-65
2022/12/23 13:17:43;;;;;;;54.27;26.55;;;;;;;;;;1692240;83;26093;-65
2022/12/23 13:20:37;;;;;;;48.92;24.10;;;;;;;;;;1720520;83;25383;-65
2022/12/23 13:23:19;;;;;;;48.78;24.35;;;;;;;;;;1719331;83;25568;-66
2022/12/23 13:25:55;;;;;;;59.08;26.57;;;;;;;;;;1719317;83;27407;-65
2022/12/23 13:28:24;;;;;;;43.38;22.02;;;;;;;;;;1720301;83;25434;-65
2022/12/23 13:30:52;;;;;;;;;;;;;;;;;;1723012;83;25560;-64
2022/12/23 13:33:30;;;;;;;45.25;23.00;;;;;;;;;;1719695;83;25623;-65
2022/12/23 13:36:06;;;;;;;54.87;25.30;;;;;;;;;;1719879;83;25406;-65
2022/12/23 13:39:02;;;;;;;43.38;22.40;;;;;;;;;;1720425;83;27397;-66
2022/12/23 13:41:38;;;;;;;54.85;25.72;;;;;;;;;;1720428;83;25638;-65
2022/12/23 13:44:09;;;;;;;46.48;24.23;;;;;;;;;;1720648;83;25422;-65
2022/12/23 13:46:52;;;;;;;47.10;23.87;;;;;;;;;;1720434;83;25455;-65
2022/12/23 13:49:46;;;;;;;49.40;24.37;;;;;;;;;;1720510;83;25549;-63
2022/12/23 13:52:24;;;;;;;49.08;24.35;;;;;;;;;;1720552;83;27118;-64
2022/12/23 13:55:11;;;;;;;43.68;22.40;;;;;;;;;;1706205;84;25624;-66
2022/12/23 13:57:50;;;;;;;49.93;23.87;;;;;;;;;;1706710;84;25561;-65
2022/12/23 14:00:20;;;;;;;46.95;22.67;;;;;;;;;;1706744;84;25538;-64
2022/12/23 14:03:02;;;;;;;48.52;22.93;;;;;;;;;;1706640;84;25618;-65
2022/12/23 14:05:34;;;;;;;50.80;23.80;;;;;;;;;;1706662;84;28293;-65
2022/12/23 14:08:06;;;;;;;50.08;23.60;;;;;;;;;;1706556;84;25629;-64
2022/12/23 14:10:34;;;;;;;58.92;26.45;;;;;;;;;;1706663;84;25502;-64
2022/12/23 14:13:07;;;;;;;50.55;24.12;;;;;;;;;;1706604;84;25549;-65
2022/12/23 14:15:38;;;;;;;46.80;23.18;;;;;;;;;;1706657;84;25448;-65
2022/12/23 14:18:17;;;;;;;46.90;23.07;;;;;;;;;;1706608;84;27370;-67
2022/12/23 14:20:49;;;;;;;44.85;22.98;;;;;;;;;;1706703;84;25576;-66
2022/12/23 14:23:20;;;;;;;47.70;22.73;;;;;;;;;;1706647;84;25599;-66
2022/12/23 14:26:05;;;;;;;54.00;25.43;;;;;;;;;;1706588;84;25435;-66
2022/12/23 14:28:38;;;;;;;50.35;25.30;;;;;;;;;;1706040;84;25463;-66
2022/12/23 14:31:08;;;;;;;53.10;25.48;;;;;;;;;;1705955;84;27417;-65
2022/12/23 14:33:36;;;;;;;45.03;22.98;;;;;;;;;;1704676;84;25641;-66
2022/12/23 14:36:22;;;;;;;53.00;25.57;;;;;;;;;;1684289;84;25484;-66
2022/12/23 14:39:13;;;;;;;44.45;24.87;;;;;;;;;;1706592;84;25581;-65
2022/12/23 14:41:52;;;;;;;52.27;23.45;;;;;;;;;;1652199;86;25527;-66
2022/12/23 14:44:37;;;;;;;58.77;25.97;;;;;;;;;;1652408;86;27402;-66
2022/12/23 14:47:06;;;;;;;53.98;26.05;;;;;;;;;;1651569;86;25621;-65
2022/12/23 14:49:36;;;;;;;52.30;24.75;;;;;;;;;;1652038;85;25671;-65
2022/12/23 14:52:20;;;;;;;;;;;;;;;;;;1654632;86;25659;-64
2022/12/23 14:54:46;;;;;;;48.75;23.47;;;;;;;;;;1647432;85;25483;-65
2022/12/23 14:57:18;;;;;;;47.35;24.25;;;;;;;;;;1646172;87;27407;-65
2022/12/23 14:59:50;;;;;;;52.33;24.70;;;;;;;;;;1646150;87;25596;-65
2022/12/23 15:02:36;;;;;;;43.73;24.27;;;;;;;;;;1662723;86;25425;-65
2022/12/23 15:05:06;;;;;;;50.95;24.10;;;;;;;;;;1630349;88;25524;-63
2022/12/23 15:07:36;;;;;;;34.70;17.42;;;;;;;;;;1635445;87;25541;-65
2022/12/23 15:10:04;;;;;;;;;;;;;;;;;;1637622;87;29625;-64
2022/12/23 15:12:40;;;;;;;45.10;23.17;;;;;;;;;;1635384;87;25651;-66